createdAt,value
2023-03-10T00:00:32.347Z,31.30
2023-03-10T00:03:46.867Z,29.48
2023-03-10T00:06:59.103Z,30.75
2023-03-10T00:10:14.317Z,31.45
2023-03-10T00:13:26.278Z,30.43
2023-03-10T00:16:38.678Z,37.98
2023-03-10T00:19:50.842Z,33.28
2023-03-10T00:23:02.831Z,31.45
2023-03-10T00:26:17.635Z,31.23
2023-03-10T00:29:30.165Z,29.38
2023-03-10T00:32:43.779Z,33.73
2023-03-10T00:35:56.040Z,32.30
2023-03-10T00:39:11.722Z,34.58
2023-03-10T00:42:23.890Z,35.30
2023-03-10T00:45:37.378Z,31.90
2023-03-10T00:48:50.067Z,35.80
2023-03-10T00:52:02.285Z,35.50
2023-03-10T00:55:16.332Z,35.85
2023-03-10T00:58:28.737Z,30.98
2023-03-10T01:01:44.716Z,30.08
2023-03-10T01:04:57.087Z,39.17
2023-03-10T01:08:09.732Z,32.75
2023-03-10T01:11:24.231Z,31.73
2023-03-10T01:14:36.390Z,30.65
2023-03-10T01:17:48.768Z,34.05
2023-03-10T01:21:01.141Z,35.73
2023-03-10T01:24:15.964Z,39.45
2023-03-10T01:27:28.134Z,35.23
2023-03-10T01:30:40.554Z,33.80
2023-03-10T01:33:53.303Z,30.43
2023-03-10T01:37:05.767Z,35.38
2023-03-10T01:40:22.196Z,34.00
2023-03-10T01:43:40.742Z,36.08
2023-03-10T01:46:59.291Z,36.40
2023-03-10T01:50:16.842Z,32.18
2023-03-10T01:53:30.440Z,34.98
2023-03-10T01:56:46.855Z,43.18
2023-03-10T02:00:01.339Z,31.37
2023-03-10T02:03:19.662Z,9.43
2023-03-10T02:06:33.875Z,5.28
2023-03-10T02:09:50.144Z,5.50
2023-03-10T02:13:02.430Z,3.57
2023-03-10T02:16:15.937Z,4.98
2023-03-10T02:19:42.014Z,5.78
2023-03-10T02:22:56.867Z,4.03
2023-03-10T02:26:15.220Z,3.63
2023-03-10T02:29:32.670Z,8.08
2023-03-10T02:32:50.078Z,26.30
2023-03-10T02:36:08.282Z,30.98
2023-03-10T02:39:20.527Z,32.53
2023-03-10T02:42:37.130Z,22.30
2023-03-10T02:45:52.267Z,11.43
2023-03-10T02:49:10.738Z,5.35
2023-03-10T02:52:33.058Z,3.70
2023-03-10T02:55:45.734Z,4.15
2023-03-10T02:58:58.350Z,2.98
2023-03-10T03:02:10.711Z,4.13
2023-03-10T03:05:24.701Z,3.15
2023-03-10T03:08:37.498Z,3.88
2023-03-10T03:11:51.162Z,4.05
2023-03-10T03:15:03.288Z,3.53
2023-03-10T03:18:15.632Z,3.00
2023-03-10T03:21:27.984Z,3.70
2023-03-10T03:24:40.508Z,2.93
2023-03-10T03:27:53.852Z,2.85
2023-03-10T03:31:06.103Z,3.48
2023-03-10T03:35:23.897Z,4.68
2023-03-10T03:38:37.236Z,5.00
2023-03-10T03:41:51.829Z,3.43
2023-03-10T03:45:04.747Z,3.73
2023-03-10T03:48:21.272Z,2.93
2023-03-10T03:51:33.903Z,3.05
2023-03-10T03:54:46.446Z,2.30
2023-03-10T03:57:58.880Z,3.75
2023-03-10T04:01:12.868Z,3.05
2023-03-10T04:04:26.714Z,2.80
2023-03-10T04:07:39.706Z,3.83
2023-03-10T04:11:00.093Z,3.13
2023-03-10T04:14:12.593Z,5.40
2023-03-10T04:17:25.038Z,4.45
2023-03-10T04:20:37.872Z,2.43
2023-03-10T04:23:50.476Z,2.50
2023-03-10T04:27:04.800Z,4.03
2023-03-10T04:30:21.049Z,5.35
2023-03-10T04:33:34.660Z,3.38
2023-03-10T04:36:47.056Z,3.90
2023-03-10T04:39:59.778Z,5.30
2023-03-10T04:43:11.969Z,7.00
2023-03-10T04:46:24.490Z,4.70
2023-03-10T04:49:37.120Z,3.78
2023-03-10T04:52:50.476Z,4.30
2023-03-10T04:56:04.896Z,6.33
2023-03-10T04:59:18.042Z,4.13
2023-03-10T05:02:30.398Z,3.75
2023-03-10T05:05:44.434Z,5.10
2023-03-10T05:08:58.559Z,2.30
2023-03-10T05:12:12.538Z,3.73
2023-03-10T05:15:25.709Z,3.78
2023-03-10T05:18:38.217Z,3.43
2023-03-10T05:21:50.257Z,5.60
2023-03-10T05:25:02.429Z,3.48
2023-03-10T05:28:15.046Z,3.50
2023-03-10T05:31:27.846Z,5.15
2023-03-10T05:34:45.092Z,6.33
2023-03-10T05:37:57.711Z,8.98
2023-03-10T05:41:14.617Z,8.38
2023-03-10T05:44:27.349Z,4.60
2023-03-10T05:47:40.536Z,7.20
2023-03-10T05:51:02.650Z,6.18
2023-03-10T05:54:16.157Z,5.10
2023-03-10T05:57:28.465Z,5.18
2023-03-10T06:00:40.675Z,4.60
2023-03-10T06:03:52.958Z,5.05
2023-03-10T06:07:05.697Z,6.98
2023-03-10T06:10:18.962Z,3.93
2023-03-10T06:13:31.537Z,3.63
2023-03-10T06:16:45.047Z,4.50
2023-03-10T06:19:57.389Z,3.23
2023-03-10T06:23:09.793Z,3.45
2023-03-10T06:26:24.353Z,4.30
2023-03-10T06:29:36.675Z,5.43
2023-03-10T06:32:48.865Z,4.10
2023-03-10T06:36:02.167Z,3.23
2023-03-10T06:39:14.778Z,4.75
2023-03-10T06:42:26.829Z,4.28
2023-03-10T06:45:39.043Z,4.38
2023-03-10T06:48:51.787Z,3.63
2023-03-10T06:52:04.505Z,7.68
2023-03-10T06:55:18.034Z,4.78
2023-03-10T06:58:30.320Z,5.78
2023-03-10T07:01:42.942Z,4.23
2023-03-10T07:04:55.321Z,4.25
2023-03-10T07:08:07.570Z,3.63
2023-03-10T07:11:20.994Z,4.48
2023-03-10T07:14:33.159Z,4.60
2023-03-10T07:17:45.505Z,6.00
2023-03-10T07:20:57.718Z,9.90
2023-03-10T07:24:11.668Z,4.18
2023-03-10T07:27:23.969Z,4.95
2023-03-10T07:30:36.637Z,6.73
2023-03-10T07:33:49.806Z,4.80
2023-03-10T07:37:02.328Z,3.53
2023-03-10T07:40:17.953Z,4.30
2023-03-10T07:43:31.101Z,5.78
2023-03-10T07:46:43.694Z,11.50
2023-03-10T07:49:56.086Z,2.90
2023-03-10T07:53:08.698Z,2.95
2023-03-10T07:56:21.903Z,3.43
2023-03-10T07:59:33.927Z,3.10
2023-03-10T08:02:46.525Z,3.80
2023-03-10T08:05:59.925Z,5.05
2023-03-10T08:09:12.302Z,4.95
2023-03-10T08:12:25.771Z,2.95
2023-03-10T08:15:37.890Z,2.40
2023-03-10T08:18:50.754Z,4.50
2023-03-10T08:22:03.773Z,3.18
2023-03-10T08:25:17.321Z,3.78
2023-03-10T08:28:30.639Z,6.43
2023-03-10T08:31:43.519Z,2.35
2023-03-10T08:34:55.741Z,2.75
2023-03-10T08:38:09.719Z,1.53
2023-03-10T08:41:26.246Z,3.10
2023-03-10T08:44:38.446Z,4.20
2023-03-10T08:47:50.644Z,3.68
2023-03-10T08:51:03.155Z,5.48
2023-03-10T08:54:18.648Z,3.43
2023-03-10T08:57:30.754Z,4.15
2023-03-10T09:00:43.142Z,3.35
2023-03-10T09:03:55.516Z,5.35
2023-03-10T09:07:07.557Z,5.23
2023-03-10T09:10:20.339Z,3.35
2023-03-10T09:13:32.590Z,4.30
2023-03-10T09:16:45.878Z,3.40
2023-03-10T09:19:58.032Z,2.08
2023-03-10T09:23:10.870Z,2.80
2023-03-10T09:26:23.310Z,2.33
2023-03-10T09:29:42.949Z,4.50
2023-03-10T09:32:50.488Z,1.58
2023-03-10T09:36:07.463Z,3.18
2023-03-10T09:39:17.876Z,4.45
2023-03-10T09:42:48.909Z,2.05
2023-03-10T09:46:06.313Z,2.80
2023-03-10T09:49:23.772Z,5.48
2023-03-10T09:52:42.999Z,2.18
2023-03-10T09:55:55.712Z,3.15
2023-03-10T09:59:14.196Z,3.40
2023-03-10T10:02:30.594Z,4.40
2023-03-10T10:09:04.571Z,4.20
2023-03-10T10:12:22.262Z,4.98
2023-03-10T10:15:36.026Z,5.10
2023-03-10T10:18:52.712Z,1.90
2023-03-10T10:22:12.137Z,2.78
2023-03-10T10:25:28.904Z,7.28
2023-03-10T10:28:49.184Z,5.25
2023-03-10T10:32:15.564Z,3.43
2023-03-10T10:35:32.543Z,2.95
2023-03-10T10:41:54.717Z,2.00
2023-03-10T10:45:10.459Z,7.10
2023-03-10T10:48:43.231Z,2.95
2023-03-10T10:52:08.376Z,1.98
2023-03-10T10:55:35.276Z,8.45
2023-03-10T10:58:50.035Z,4.90
2023-03-10T11:02:05.417Z,3.13
2023-03-10T11:05:24.499Z,5.03
2023-03-10T11:08:44.415Z,4.18
2023-03-10T11:12:09.364Z,4.13
2023-03-10T11:15:27.378Z,5.73
2023-03-10T11:18:43.558Z,5.70
2023-03-10T11:22:00.662Z,2.17
2023-03-10T11:25:22.927Z,3.25
2023-03-10T11:28:52.179Z,3.38
2023-03-10T11:32:11.437Z,4.90
2023-03-10T11:35:31.980Z,7.43
2023-03-10T11:38:46.628Z,7.70
2023-03-10T11:42:04.408Z,4.30
2023-03-10T11:45:33.212Z,5.90
2023-03-10T11:48:59.303Z,4.73
2023-03-10T11:52:17.152Z,3.13
2023-03-10T11:55:30.530Z,3.78
2023-03-10T11:58:50.403Z,3.85
2023-03-10T12:02:07.964Z,3.33
2023-03-10T12:05:27.126Z,3.83
2023-03-10T12:08:41.142Z,3.48
2023-03-10T12:11:54.240Z,4.65
2023-03-10T12:15:13.381Z,7.78
2023-03-10T12:18:26.931Z,3.25
2023-03-10T12:21:39.991Z,3.93
2023-03-10T12:24:53.573Z,5.88
2023-03-10T12:28:33.324Z,4.08
2023-03-10T12:31:57.132Z,4.28
2023-03-10T12:35:52.581Z,4.63
2023-03-10T12:39:05.879Z,6.13
2023-03-10T12:42:39.822Z,4.98
2023-03-10T12:45:53.831Z,4.30
2023-03-10T12:49:26.708Z,5.60
2023-03-10T12:52:51.810Z,5.50
2023-03-10T12:56:29.327Z,6.20
2023-03-10T12:59:48.503Z,5.48
2023-03-10T13:03:05.268Z,3.18
2023-03-10T13:09:43.639Z,3.93
2023-03-10T13:12:59.547Z,3.28
2023-03-10T13:16:20.307Z,3.28
2023-03-10T13:19:35.698Z,4.65
2023-03-10T13:22:57.783Z,4.68
2023-03-10T13:26:18.929Z,5.23
2023-03-10T13:29:30.955Z,4.43
2023-03-10T13:32:43.232Z,5.15
2023-03-10T13:35:55.719Z,7.95
2023-03-10T13:39:12.426Z,6.68
2023-03-10T13:42:43.315Z,3.78
2023-03-10T13:45:45.052Z,6.78
2023-03-10T13:48:58.284Z,9.05
2023-03-10T13:52:15.957Z,5.63
2023-03-10T13:55:28.765Z,4.18
2023-03-10T13:58:41.040Z,5.00
2023-03-10T14:01:57.774Z,4.80
2023-03-10T14:05:11.834Z,7.70
2023-03-10T14:08:33.929Z,7.43
2023-03-10T14:11:49.163Z,5.33
2023-03-10T14:15:02.378Z,4.48
2023-03-10T14:18:27.967Z,5.48
2023-03-10T14:21:52.412Z,6.70
2023-03-10T14:24:55.822Z,4.75
2023-03-10T14:28:17.674Z,4.80
2023-03-10T14:31:30.923Z,5.78
2023-03-10T14:34:43.621Z,5.18
2023-03-10T14:37:55.937Z,6.03
2023-03-10T14:41:10.087Z,6.00
2023-03-10T14:44:22.087Z,5.93
2023-03-10T14:47:34.293Z,5.83
2023-03-10T14:50:46.838Z,3.88
2023-03-10T14:53:59.032Z,5.18
2023-03-10T14:57:11.736Z,5.25
2023-03-10T15:00:27.784Z,8.60
2023-03-10T15:06:50.109Z,5.93
2023-03-10T15:10:11.250Z,5.58
2023-03-10T15:13:18.260Z,3.95
2023-03-10T15:16:30.312Z,4.68
2023-03-10T15:19:42.397Z,7.50
2023-03-10T15:22:55.436Z,4.40
2023-03-10T15:26:09.746Z,8.10
2023-03-10T15:29:23.947Z,6.68
2023-03-10T15:32:35.969Z,6.90
2023-03-10T15:35:50.065Z,6.38
2023-03-10T15:39:02.432Z,8.35
2023-03-10T15:42:14.809Z,5.75
2023-03-10T15:45:27.657Z,9.23
2023-03-10T15:48:39.956Z,5.48
2023-03-10T15:51:52.060Z,6.75
2023-03-10T15:55:04.558Z,10.60
2023-03-10T15:58:17.025Z,11.20
2023-03-10T16:01:29.145Z,6.35
2023-03-10T16:04:42.263Z,4.78
2023-03-10T16:07:54.830Z,8.03
2023-03-10T16:11:09.182Z,6.25
2023-03-10T16:14:21.096Z,4.98
2023-03-10T16:17:34.818Z,4.28
2023-03-10T16:20:46.823Z,13.88
2023-03-10T16:23:58.737Z,8.45
2023-03-10T16:27:11.208Z,7.03
2023-03-10T16:30:25.733Z,4.93
2023-03-10T16:33:38.346Z,5.30
2023-03-10T16:36:50.514Z,6.73
2023-03-10T16:40:04.600Z,8.15
2023-03-10T16:43:17.800Z,7.38
2023-03-10T16:46:32.248Z,7.95
2023-03-10T16:49:44.468Z,5.75
2023-03-10T16:52:56.876Z,6.00
2023-03-10T16:56:13.646Z,7.98
2023-03-10T16:59:28.331Z,8.88
2023-03-10T17:02:40.262Z,11.00
2023-03-10T17:05:53.805Z,14.60
2023-03-10T17:09:07.432Z,8.85
2023-03-10T17:12:20.033Z,21.43
2023-03-10T17:15:33.295Z,10.65
2023-03-10T17:18:45.263Z,10.55
2023-03-10T17:21:58.456Z,8.75
2023-03-10T17:25:11.793Z,12.25
2023-03-10T17:28:23.832Z,12.08
2023-03-10T17:31:37.468Z,12.23
2023-03-10T17:34:52.355Z,6.70
2023-03-10T17:38:04.400Z,9.68
2023-03-10T17:41:19.022Z,4.20
2023-03-10T17:44:31.636Z,4.18
2023-03-10T17:47:43.948Z,6.93
2023-03-10T17:50:57.188Z,3.88
2023-03-10T17:54:09.696Z,3.93
2023-03-10T17:57:22.078Z,3.63
2023-03-10T18:00:34.856Z,4.28
2023-03-10T18:03:48.440Z,2.63
2023-03-10T18:07:01.289Z,4.93
2023-03-10T18:10:16.932Z,3.83
2023-03-10T18:13:29.351Z,4.05
2023-03-10T18:16:45.288Z,5.30
2023-03-10T18:20:01.066Z,6.03
2023-03-10T18:23:13.337Z,7.85
2023-03-10T18:26:29.692Z,6.40
2023-03-10T18:29:41.886Z,5.03
2023-03-10T18:32:54.156Z,7.63
2023-03-10T18:36:12.270Z,12.18
2023-03-10T18:39:24.490Z,13.18
2023-03-10T18:42:37.379Z,5.83
2023-03-10T18:45:49.445Z,6.83
2023-03-10T18:49:01.487Z,4.98
2023-03-10T18:52:15.766Z,6.13
2023-03-10T18:55:28.050Z,9.00
2023-03-10T18:58:40.260Z,4.80
2023-03-10T19:01:52.619Z,5.13
2023-03-10T19:05:05.380Z,6.85
2023-03-10T19:08:22.722Z,9.45
2023-03-10T19:11:40.259Z,12.75
2023-03-10T19:14:52.450Z,9.90
2023-03-10T19:18:04.515Z,10.48
2023-03-10T19:21:17.157Z,8.05
2023-03-10T19:24:29.134Z,6.18
2023-03-10T19:27:42.391Z,10.55
2023-03-10T19:30:54.348Z,11.53
2023-03-10T19:34:06.771Z,10.05
2023-03-10T19:37:19.473Z,11.90
2023-03-10T19:40:31.932Z,11.25
2023-03-10T19:43:44.643Z,30.70
2023-03-10T19:46:57.221Z,9.85
2023-03-10T19:50:10.313Z,9.95
2023-03-10T19:53:22.512Z,8.20
2023-03-10T19:56:35.036Z,8.65
2023-03-10T19:59:47.581Z,10.15
2023-03-10T20:03:01.266Z,7.63
2023-03-10T20:06:14.140Z,9.88
2023-03-10T20:09:26.407Z,8.15
2023-03-10T20:12:38.719Z,9.85
2023-03-10T20:15:51.431Z,9.78
2023-03-10T20:19:03.659Z,8.05
2023-03-10T20:22:18.117Z,10.03
2023-03-10T20:25:32.220Z,7.85
2023-03-10T20:28:45.495Z,7.83
2023-03-10T20:31:57.663Z,11.20
2023-03-10T20:35:10.979Z,8.55
2023-03-10T20:38:23.397Z,8.98
2023-03-10T20:41:35.812Z,6.80
2023-03-10T20:44:48.265Z,6.73
2023-03-10T20:48:00.475Z,8.43
2023-03-10T20:51:14.931Z,7.50
2023-03-10T20:54:28.596Z,7.58
2023-03-10T20:57:41.392Z,6.78
2023-03-10T21:00:55.567Z,6.25
2023-03-10T21:04:08.051Z,5.43
2023-03-10T21:07:20.620Z,5.55
2023-03-10T21:10:32.916Z,8.43
2023-03-10T21:13:45.391Z,7.85
2023-03-10T21:17:00.074Z,7.63
2023-03-10T21:20:16.714Z,7.28
2023-03-10T21:23:29.042Z,6.23
2023-03-10T21:26:41.655Z,6.08
2023-03-10T21:29:54.520Z,6.65
2023-03-10T21:33:07.187Z,7.15
2023-03-10T21:36:23.719Z,6.05
2023-03-10T21:39:35.840Z,6.98
2023-03-10T21:42:48.052Z,8.73
2023-03-10T21:46:00.504Z,9.40
2023-03-10T21:49:13.006Z,5.75
2023-03-10T21:52:25.532Z,8.00
2023-03-10T21:55:41.833Z,8.28
2023-03-10T21:58:55.230Z,10.93
2023-03-10T22:02:08.471Z,7.23
2023-03-10T22:05:23.387Z,8.60
2023-03-10T22:08:35.595Z,9.33
2023-03-10T22:11:47.799Z,6.75
2023-03-10T22:15:00.167Z,8.30
2023-03-10T22:18:14.621Z,7.20
2023-03-10T22:21:27.035Z,8.58
2023-03-10T22:24:40.369Z,7.38
2023-03-10T22:27:55.191Z,7.78
2023-03-10T22:31:08.093Z,10.90
2023-03-10T22:34:20.470Z,8.00
2023-03-10T22:37:32.678Z,8.55
2023-03-10T22:40:46.093Z,9.33
2023-03-10T22:43:58.822Z,11.30
2023-03-10T22:47:11.946Z,10.35
2023-03-10T22:50:26.907Z,9.05
2023-03-10T22:53:39.286Z,8.88
2023-03-10T22:56:51.627Z,6.50
2023-03-10T23:00:03.845Z,8.80
2023-03-10T23:03:18.158Z,9.45
2023-03-10T23:06:31.969Z,10.90
2023-03-10T23:09:44.153Z,13.50
2023-03-10T23:12:57.965Z,10.35
2023-03-10T23:16:12.195Z,9.03
2023-03-10T23:19:24.659Z,10.23
2023-03-10T23:22:36.765Z,12.35
2023-03-10T23:25:52.044Z,9.43
2023-03-10T23:29:04.384Z,13.68
2023-03-10T23:32:17.244Z,8.40
2023-03-10T23:35:32.878Z,8.35
2023-03-10T23:38:45.921Z,7.90
2023-03-10T23:41:57.899Z,7.55
2023-03-10T23:45:11.736Z,8.43
2023-03-10T23:48:25.738Z,7.55
2023-03-10T23:51:37.844Z,9.38
2023-03-10T23:54:49.897Z,11.33
2023-03-10T23:58:02.275Z,8.90
